Time;durP1;ratioP1;P1;durP2;ratioP2;P2;SDS_P1;SDS_P2;PMS_P1;PMS_P2;Temp;Humidity;BMP_temperature;BMP_pressure;BME280_temperature;BME280_humidity;BME280_pressure;Samples;Min_cycle;Max_cycle;Signal;HPM_P1;HPM_P2
2023/05/07 00:56:22;;;;;;;4.20;1.70;;;;;;;4.39;100.00;100957.27;103278;1282;613877;-59
2023/05/07 00:58:49;;;;;;;3.60;1.90;;;;;;;4.44;100.00;100955.67;105229;1263;109031;-58
2023/05/07 01:01:17;;;;;;;4.70;1.70;;;;;;;4.41;100.00;100950.73;104778;1263;61672;-57
2023/05/07 01:03:44;;;;;;;3.80;1.90;;;;;;;4.37;100.00;100952.23;104969;1263;74081;-56
2023/05/07 01:06:12;;;;;;;4.60;1.90;;;;;;;4.33;100.00;100949.33;105949;1252;68115;-55
2023/05/07 01:08:40;;;;;;;3.80;2.10;;;;;;;4.29;100.00;100946.02;105539;1255;74089;-55
2023/05/07 01:11:07;;;;;;;4.90;1.70;;;;;;;4.28;100.00;100943.51;105493;1253;62081;-57
2023/05/07 01:13:35;;;;;;;4.90;1.80;;;;;;;4.28;100.00;100945.96;105690;1257;61481;-54
2023/05/07 01:16:03;;;;;;;4.80;2.00;;;;;;;4.26;100.00;100951.26;105680;1253;73594;-54
2023/05/07 01:18:30;;;;;;;4.50;1.80;;;;;;;4.24;100.00;100946.81;105764;1255;68750;-55
2023/05/07 01:20:58;;;;;;;4.90;2.10;;;;;;;4.22;100.00;100946.99;105652;1257;74690;-55
2023/05/07 01:23:26;;;;;;;4.70;1.90;;;;;;;4.18;100.00;100943.29;105583;1254;61400;-54
2023/05/07 01:25:54;;;;;;;4.60;1.90;;;;;;;4.13;100.00;100941.09;105530;1257;60477;-56
2023/05/07 01:28:23;;;;;;;4.20;1.80;;;;;;;4.12;100.00;100944.48;105914;1253;74545;-59
2023/05/07 01:30:56;;;;;;;5.70;2.10;;;;;;;4.10;100.00;100938.44;105702;1254;70130;-54
2023/05/07 01:33:24;;;;;;;4.70;1.70;;;;;;;4.08;100.00;100940.32;105591;1254;73903;-56
2023/05/07 01:35:53;;;;;;;10.30;2.50;;;;;;;4.06;100.00;100942.05;105654;1252;61792;-55
2023/05/07 01:38:23;;;;;;;4.30;2.40;;;;;;;4.05;100.00;100938.50;105683;1253;62877;-55
2023/05/07 01:40:50;;;;;;;4.80;2.10;;;;;;;4.01;100.00;100942.95;105614;1255;75647;-55
2023/05/07 01:43:17;;;;;;;4.80;2.10;;;;;;;3.99;100.00;100943.13;105626;1258;68594;-55
2023/05/07 01:45:44;;;;;;;3.70;1.80;;;;;;;3.96;100.00;100946.25;105783;1254;75195;-55
2023/05/07 01:48:11;;;;;;;4.50;1.90;;;;;;;3.93;100.00;100948.26;105235;1260;60798;-55
2023/05/07 01:50:39;;;;;;;4.10;1.70;;;;;;;3.92;100.00;100945.40;105338;1259;61534;-56
2023/05/07 01:53:06;;;;;;;4.30;1.90;;;;;;;3.92;100.00;100946.59;105767;1258;73500;-55
2023/05/07 01:55:33;;;;;;;6.90;2.40;;;;;;;3.92;100.00;100947.17;105482;1253;69528;-55
2023/05/07 01:58:00;;;;;;;5.40;1.90;;;;;;;3.90;100.00;100947.30;105741;1254;75290;-54
2023/05/07 02:00:28;;;;;;;4.50;1.80;;;;;;;3.88;100.00;100947.27;105423;1260;61877;-54
2023/05/07 02:02:56;;;;;;;5.10;2.00;;;;;;;3.86;100.00;100949.48;105774;1253;61671;-55
2023/05/07 02:05:32;;;;;;;5.00;2.00;;;;;;;3.86;100.00;100949.31;105629;1255;75595;-55
2023/05/07 02:08:04;;;;;;;4.60;1.80;;;;;;;3.85;100.00;100954.88;105780;1253;69237;-56
2023/05/07 02:10:32;;;;;;;3.90;1.80;;;;;;;3.86;100.00;100957.38;105803;1253;74873;-56
2023/05/07 02:13:01;;;;;;;4.40;2.30;;;;;;;3.87;100.00;100956.45;106011;1253;64124;-58
2023/05/07 02:15:28;;;;;;;4.30;1.90;;;;;;;3.89;100.00;100955.58;105382;1259;62092;-53
2023/05/07 02:18:06;;;;;;;3.80;2.00;;;;;;;3.95;100.00;100953.79;105675;1253;74547;-54
2023/05/07 02:20:33;;;;;;;4.20;1.80;;;;;;;4.02;100.00;100950.61;105756;1257;69525;-53
2023/05/07 02:23:00;;;;;;;4.70;2.00;;;;;;;4.09;100.00;100952.63;105655;1253;75362;-54
2023/05/07 02:25:29;;;;;;;5.30;1.80;;;;;;;4.15;100.00;100957.98;105676;1259;60923;-55
2023/05/07 02:27:57;;;;;;;5.60;1.70;;;;;;;4.26;100.00;100962.66;105704;1252;63031;-53
2023/05/07 02:30:33;;;;;;;4.20;1.70;;;;;;;4.35;100.00;100959.48;105523;1252;74467;-56
2023/05/07 02:33:01;;;;;;;3.80;1.70;;;;;;;4.38;100.00;100962.45;105533;1259;69413;-54
2023/05/07 02:35:28;;;;;;;3.80;2.00;;;;;;;4.42;100.00;100961.29;105463;1259;73322;-54
2023/05/07 02:37:55;;;;;;;4.10;2.40;;;;;;;4.52;100.00;100962.22;105767;1256;62553;-54
2023/05/07 02:40:23;;;;;;;3.70;1.80;;;;;;;4.61;100.00;100962.63;105732;1253;62530;-53
2023/05/07 02:42:51;;;;;;;3.30;2.30;;;;;;;4.62;100.00;100958.09;105985;1253;73801;-58
2023/05/07 02:45:18;;;;;;;4.60;1.90;;;;;;;4.62;100.00;100956.55;105404;1253;70069;-53
2023/05/07 02:47:46;;;;;;;4.30;1.90;;;;;;;4.62;100.00;100958.27;105771;1253;74172;-54
2023/05/07 02:50:14;;;;;;;5.50;2.10;;;;;;;4.65;100.00;100952.84;105761;1257;59799;-54
2023/05/07 02:52:41;;;;;;;5.60;2.60;;;;;;;4.72;100.00;100954.36;105727;1253;62444;-58
2023/05/07 02:55:08;;;;;;;3.50;1.90;;;;;;;4.85;100.00;100958.44;105505;1257;74721;-54
2023/05/07 02:57:36;;;;;;;4.20;2.00;;;;;;;4.97;100.00;100959.66;105820;1253;69944;-54
2023/05/07 03:00:11;;;;;;;6.20;2.30;;;;;;;5.22;100.00;100956.68;105629;1252;75060;-54
2023/05/07 03:02:40;;;;;;;3.80;2.10;;;;;;;5.74;100.00;100961.46;105551;1254;62104;-54
2023/05/07 03:05:08;;;;;;;8.00;2.60;;;;;;;6.35;100.00;100961.96;105499;1257;61774;-55
2023/05/07 03:07:36;;;;;;;3.50;1.80;;;;;;;6.79;100.00;100963.82;105816;1253;75393;-53
2023/05/07 03:10:04;;;;;;;7.10;2.20;;;;;;;7.06;100.00;100964.05;105785;1257;68582;-54
2023/05/07 03:12:31;;;;;;;4.70;2.00;;;;;;;7.33;100.00;100960.52;105540;1257;73954;-53
2023/05/07 03:14:58;;;;;;;5.30;1.90;;;;;;;7.62;100.00;100959.83;105784;1254;61394;-55
2023/05/07 03:17:25;;;;;;;12.70;2.90;;;;;;;7.99;100.00;100951.08;105524;1259;62853;-54
2023/05/07 03:19:53;;;;;;;8.50;4.10;;;;;;;8.49;100.00;100944.85;105730;1252;75198;-55
2023/05/07 03:22:20;;;;;;;7.40;3.20;;;;;;;9.05;100.00;100948.77;105708;1257;69336;-54
2023/05/07 03:24:47;;;;;;;4.90;1.60;;;;;;;9.63;100.00;100950.70;105782;1253;75161;-58
2023/05/07 03:27:14;;;;;;;4.40;2.00;;;;;;;10.14;98.34;100947.63;105552;1257;60670;-55
2023/05/07 03:29:42;;;;;;;5.10;2.00;;;;;;;10.55;90.17;100945.17;105675;1255;61624;-54
2023/05/07 03:32:09;;;;;;;3.30;1.70;;;;;;;10.94;79.86;100946.17;105832;1256;75537;-54
2023/05/07 03:34:36;;;;;;;4.20;2.50;;;;;;;11.17;71.75;100951.08;105797;1253;69260;-54
2023/05/07 03:37:04;;;;;;;3.50;1.80;;;;;;;11.45;69.82;100955.25;105831;1256;75534;-59
2023/05/07 03:39:32;;;;;;;5.30;1.80;;;;;;;11.79;61.66;100953.16;105423;1252;62923;-54
2023/05/07 03:42:00;;;;;;;3.90;1.60;;;;;;;12.03;58.36;100955.40;105513;1253;61817;-55
2023/05/07 03:44:28;;;;;;;4.00;1.50;;;;;;;12.28;55.75;100957.67;105784;1253;75750;-56
2023/05/07 03:46:56;;;;;;;4.20;1.60;;;;;;;12.50;51.58;100962.02;105829;1253;69981;-59
2023/05/07 03:49:23;;;;;;;4.10;1.50;;;;;;;12.61;50.45;100965.80;105664;1252;75873;-55
2023/05/07 03:51:51;;;;;;;3.70;1.90;;;;;;;12.72;48.79;100968.86;105718;1253;62718;-55
2023/05/07 03:54:18;;;;;;;3.20;1.30;;;;;;;12.84;48.16;100969.80;105617;1254;62866;-55
2023/05/07 03:56:46;;;;;;;3.70;1.60;;;;;;;13.03;46.69;100966.64;105687;1257;75511;-58
2023/05/07 03:59:13;;;;;;;4.20;1.40;;;;;;;13.16;45.47;100968.46;105672;1253;70015;-59
2023/05/07 04:01:42;;;;;;;3.40;1.40;;;;;;;13.33;44.96;100969.81;105422;1259;75383;-56
2023/05/07 04:04:13;;;;;;;3.70;1.60;;;;;;;13.50;44.06;100967.15;105479;1254;61395;-54
2023/05/07 04:06:41;;;;;;;3.90;1.30;;;;;;;13.66;43.98;100970.50;105830;1253;62597;-57
2023/05/07 04:09:08;;;;;;;3.90;1.60;;;;;;;13.96;42.81;100974.14;105881;1257;74818;-60
2023/05/07 04:11:36;;;;;;;3.20;1.60;;;;;;;14.28;42.83;100980.77;105280;1259;68819;-55
2023/05/07 04:14:04;;;;;;;4.60;1.30;;;;;;;14.54;40.06;100978.65;105650;1257;74722;-55
2023/05/07 04:16:32;;;;;;;3.20;1.20;;;;;;;14.59;39.34;100985.71;105629;1253;62840;-55
2023/05/07 04:18:59;;;;;;;4.40;1.80;;;;;;;14.63;39.00;100983.39;105972;1256;62297;-59
2023/05/07 04:21:26;;;;;;;4.90;1.90;;;;;;;14.62;39.03;100987.42;105630;1252;76115;-54
2023/05/07 04:23:54;;;;;;;5.40;1.50;;;;;;;14.76;38.95;100993.00;105667;1253;69596;-54
2023/05/07 04:26:21;;;;;;;2.80;1.20;;;;;;;14.94;38.07;100990.23;105319;1253;75219;-58
2023/05/07 04:28:48;;;;;;;3.80;1.30;;;;;;;15.03;37.00;100993.20;105477;1253;62765;-54
2023/05/07 04:31:16;;;;;;;2.30;1.10;;;;;;;15.04;36.76;100987.39;105870;1252;62891;-56
2023/05/07 04:33:45;;;;;;;3.90;1.50;;;;;;;15.06;36.53;100988.61;105794;1252;74239;-55
2023/05/07 04:36:12;;;;;;;2.20;1.10;;;;;;;15.00;35.75;100990.39;105556;1252;68374;-55
2023/05/07 04:38:45;;;;;;;3.60;1.30;;;;;;;14.96;36.58;100988.60;105485;1254;75422;-55
2023/05/07 04:41:16;;;;;;;2.40;1.20;;;;;;;15.18;35.98;100982.70;105593;1253;62611;-54
2023/05/07 04:43:44;;;;;;;4.50;1.40;;;;;;;15.30;34.68;100981.95;105778;1257;62860;-55
2023/05/07 04:46:12;;;;;;;2.40;1.20;;;;;;;15.19;34.66;100973.48;105850;1257;75548;-55
2023/05/07 04:48:40;;;;;;;4.50;1.20;;;;;;;15.21;35.15;100961.02;105648;1257;69425;-58
2023/05/07 04:51:07;;;;;;;5.30;1.20;;;;;;;15.41;34.79;100957.73;106029;1252;75222;-59
2023/05/07 04:53:34;;;;;;;2.50;1.10;;;;;;;15.56;34.49;100959.30;105428;1253;63069;-55
2023/05/07 04:56:01;;;;;;;5.60;1.30;;;;;;;15.73;33.22;100959.09;105985;1254;62511;-54
2023/05/07 04:58:39;;;;;;;3.50;1.10;;;;;;;15.71;33.15;100963.09;105583;1259;75842;-55
2023/05/07 05:01:06;;;;;;;2.80;1.20;;;;;;;15.64;33.30;100965.36;105638;1254;68634;-56
2023/05/07 05:03:33;;;;;;;2.40;1.50;;;;;;;15.71;33.41;100969.20;105538;1253;75236;-56
2023/05/07 05:06:01;;;;;;;2.80;1.30;;;;;;;15.89;33.61;100969.34;105822;1257;61523;-55
2023/05/07 05:08:31;;;;;;;2.70;1.10;;;;;;;16.13;32.84;100961.84;105608;1259;62040;-55
2023/05/07 05:11:00;;;;;;;3.40;1.40;;;;;;;16.36;31.78;100959.08;105282;1253;75158;-55
2023/05/07 05:13:28;;;;;;;2.70;1.20;;;;;;;16.36;31.30;100958.07;105630;1258;68523;-56
2023/05/07 05:15:55;;;;;;;5.90;1.40;;;;;;;16.20;31.28;100954.60;105593;1255;74849;-54
2023/05/07 05:18:23;;;;;;;3.90;1.20;;;;;;;16.10;30.92;100953.06;105838;1259;62468;-56
2023/05/07 05:20:51;;;;;;;3.50;1.10;;;;;;;16.06;30.78;100957.42;105254;1259;62518;-54
2023/05/07 05:23:19;;;;;;;1.80;0.90;;;;;;;15.93;31.16;100957.79;105765;1253;75191;-54
2023/05/07 05:25:47;;;;;;;2.50;0.90;;;;;;;15.82;30.12;100954.69;105450;1259;68644;-55
2023/05/07 05:28:15;;;;;;;2.80;1.20;;;;;;;15.54;31.06;100958.65;105513;1254;75801;-56
2023/05/07 05:30:42;;;;;;;3.80;1.10;;;;;;;15.52;31.00;100960.42;105657;1253;62883;-54
2023/05/07 05:33:09;;;;;;;6.30;1.60;;;;;;;15.39;31.61;100950.56;105753;1258;61720;-54
2023/05/07 05:35:37;;;;;;;3.10;1.30;;;;;;;15.32;31.40;100938.82;105611;1258;76730;-53
2023/05/07 05:38:05;;;;;;;4.50;1.10;;;;;;;15.34;31.50;100935.31;105417;1252;69523;-59
2023/05/07 05:40:33;;;;;;;3.10;1.10;;;;;;;15.55;31.23;100938.89;105452;1253;75133;-54
2023/05/07 05:43:00;;;;;;;3.90;1.00;;;;;;;15.70;31.64;100939.23;105512;1253;62522;-55
2023/05/07 05:45:28;;;;;;;3.30;1.30;;;;;;;15.83;31.09;100925.46;105655;1259;62829;-57
2023/05/07 05:47:56;;;;;;;3.60;1.10;;;;;;;15.80;31.18;100928.04;105737;1253;75020;-56
2023/05/07 05:50:23;;;;;;;3.80;1.10;;;;;;;15.70;30.30;100930.48;105594;1259;69000;-56
2023/05/07 05:52:51;;;;;;;8.10;1.00;;;;;;;15.47;31.02;100928.88;105715;1257;74828;-55
2023/05/07 05:55:19;;;;;;;5.10;1.30;;;;;;;15.52;31.08;100918.63;106269;1256;61841;-60
2023/05/07 05:57:47;;;;;;;6.00;1.40;;;;;;;15.70;30.89;100913.42;105480;1254;61998;-55
2023/05/07 06:00:15;;;;;;;3.00;1.20;;;;;;;15.93;30.84;100914.26;105706;1253;76270;-56
2023/05/07 06:02:45;;;;;;;2.40;1.00;;;;;;;16.09;30.07;100916.23;105678;1257;69664;-55
2023/05/07 06:05:17;;;;;;;3.60;1.20;;;;;;;15.93;30.70;100921.38;105382;1259;73761;-59
2023/05/07 06:07:45;;;;;;;5.00;1.50;;;;;;;15.85;30.55;100918.17;105112;1253;62578;-60
2023/05/07 06:10:12;;;;;;;6.50;1.50;;;;;;;15.86;30.94;100922.09;105752;1252;62487;-56
2023/05/07 06:12:40;;;;;;;5.20;1.60;;;;;;;16.01;31.09;100913.56;105878;1256;76353;-56
2023/05/07 06:15:08;;;;;;;6.10;1.30;;;;;;;16.20;30.22;100916.88;105541;1253;69652;-55
2023/05/07 06:17:35;;;;;;;2.60;1.30;;;;;;;16.21;30.14;100926.88;105854;1257;74095;-61
2023/05/07 06:20:03;;;;;;;3.50;1.10;;;;;;;16.12;30.75;100926.23;105613;1259;62902;-55
2023/05/07 06:22:30;;;;;;;3.50;1.20;;;;;;;16.04;30.38;100928.09;105709;1257;62699;-53
2023/05/07 06:24:57;;;;;;;4.10;1.00;;;;;;;15.94;31.01;100925.10;105395;1254;75305;-54
2023/05/07 06:27:25;;;;;;;4.10;1.30;;;;;;;15.94;31.39;100930.16;105895;1258;68211;-57
2023/05/07 06:29:53;;;;;;;2.80;1.10;;;;;;;16.00;30.91;100937.16;105194;1259;75011;-57
2023/05/07 06:32:20;;;;;;;4.60;1.40;;;;;;;16.01;30.71;100928.49;105382;1259;61725;-55
2023/05/07 06:34:48;;;;;;;3.20;1.30;;;;;;;16.03;30.95;100925.27;105761;1253;62436;-55
2023/05/07 06:37:15;;;;;;;4.20;1.30;;;;;;;16.12;30.68;100919.84;105863;1255;75445;-55
2023/05/07 06:40:05;;;;;;;2.80;1.10;;;;;;;16.32;30.61;100922.98;105348;1259;69205;-56
2023/05/07 06:42:32;;;;;;;5.90;1.40;;;;;;;16.37;30.27;100932.20;105420;1253;75160;-55
2023/05/07 06:45:15;;;;;;;2.50;0.90;;;;;;;16.25;30.30;100941.13;105295;1259;61813;-56
2023/05/07 06:47:43;;;;;;;5.10;1.10;;;;;;;16.13;30.65;100937.97;105645;1256;61673;-54
2023/05/07 06:50:10;;;;;;;3.20;1.20;;;;;;;16.06;30.68;100942.23;105588;1257;76308;-55
2023/05/07 06:52:38;;;;;;;4.40;1.30;;;;;;;15.95;31.03;100943.19;105465;1259;69324;-54
2023/05/07 06:55:06;;;;;;;6.40;1.30;;;;;;;15.81;31.15;100926.38;105435;1258;75305;-55
2023/05/07 06:57:33;;;;;;;3.50;1.30;;;;;;;15.81;32.11;100921.81;105395;1259;61811;-56
2023/05/07 07:00:00;;;;;;;3.30;1.00;;;;;;;15.94;31.80;100927.52;105759;1253;62412;-55
2023/05/07 07:02:29;;;;;;;5.40;1.30;;;;;;;16.06;31.64;100927.98;105549;1258;76788;-54
2023/05/07 07:04:57;;;;;;;6.00;1.40;;;;;;;16.21;31.08;100926.59;106055;1256;68420;-59
2023/05/07 07:07:24;;;;;;;4.70;0.80;;;;;;;16.16;30.68;100929.88;105644;1259;74451;-55
2023/05/07 07:09:51;;;;;;;2.80;1.00;;;;;;;16.00;31.30;100929.55;105744;1256;61723;-55
2023/05/07 07:12:19;;;;;;;3.20;1.10;;;;;;;16.10;32.27;100936.55;105693;1257;62416;-55
2023/05/07 07:14:46;;;;;;;2.70;0.90;;;;;;;16.46;31.17;100929.67;105742;1253;76720;-54
2023/05/07 07:17:14;;;;;;;2.50;0.80;;;;;;;16.62;30.96;100927.27;105472;1259;69906;-56
2023/05/07 07:19:41;;;;;;;2.00;1.10;;;;;;;16.60;30.78;100935.36;105311;1258;74947;-54
2023/05/07 07:22:09;;;;;;;2.00;0.90;;;;;;;16.55;30.66;100926.39;105780;1259;61959;-55
2023/05/07 07:24:37;;;;;;;3.10;0.90;;;;;;;16.47;30.87;100937.73;105744;1259;63111;-54
2023/05/07 07:27:05;;;;;;;2.70;1.10;;;;;;;16.50;31.48;100936.84;105734;1257;76363;-56
2023/05/07 07:29:33;;;;;;;2.80;1.00;;;;;;;16.65;30.90;100937.73;105708;1256;68120;-55
2023/05/07 07:32:01;;;;;;;2.90;1.10;;;;;;;16.73;30.08;100932.15;105767;1253;75210;-56
2023/05/07 07:34:28;;;;;;;4.20;0.90;;;;;;;16.77;30.30;100927.61;105533;1253;63481;-56
2023/05/07 07:36:56;;;;;;;6.70;1.10;;;;;;;16.91;30.21;100928.91;105553;1256;62724;-58
2023/05/07 07:39:23;;;;;;;4.50;1.10;;;;;;;17.05;29.93;100928.56;105682;1253;76159;-58
2023/05/07 07:41:51;;;;;;;2.70;1.10;;;;;;;17.19;29.94;100938.47;105677;1253;68408;-55
2023/05/07 07:44:19;;;;;;;2.30;0.90;;;;;;;17.34;29.30;100936.98;105763;1253;74913;-55
2023/05/07 07:46:50;;;;;;;5.40;1.10;;;;;;;17.21;29.55;100934.86;105629;1258;61724;-56
2023/05/07 07:49:18;;;;;;;5.30;1.00;;;;;;;17.17;29.76;100934.31;105904;1252;61653;-56
2023/05/07 07:51:45;;;;;;;3.30;1.00;;;;;;;17.16;29.82;100938.01;105674;1253;75161;-55
2023/05/07 07:54:12;;;;;;;1.90;1.00;;;;;;;17.24;29.70;100934.84;105825;1256;68581;-54
2023/05/07 07:56:40;;;;;;;1.70;1.00;;;;;;;17.25;29.15;100926.90;105766;1258;75152;-55
2023/05/07 07:59:08;;;;;;;7.10;1.10;;;;;;;17.23;28.99;100912.55;105571;1255;61479;-58
2023/05/07 08:01:37;;;;;;;4.40;1.10;;;;;;;17.05;29.08;100925.41;105525;1253;62706;-54
2023/05/07 08:04:05;;;;;;;3.70;1.00;;;;;;;16.89;30.00;100913.03;105707;1257;76350;-54
2023/05/07 08:06:35;;;;;;;2.00;0.80;;;;;;;16.84;29.92;100917.52;105557;1259;69504;-57
2023/05/07 08:09:03;;;;;;;4.60;1.30;;;;;;;16.90;29.46;100918.79;105770;1254;75296;-55
2023/05/07 08:11:30;;;;;;;2.50;1.00;;;;;;;16.99;29.36;100912.05;105513;1253;62888;-58
2023/05/07 08:13:57;;;;;;;4.70;1.10;;;;;;;17.05;29.85;100919.98;105276;1262;62743;-54
2023/05/07 08:16:25;;;;;;;3.30;0.90;;;;;;;17.10;28.96;100915.34;105766;1253;74896;-54
2023/05/07 08:18:52;;;;;;;3.10;1.00;;;;;;;17.03;28.44;100919.62;105516;1253;69469;-55
2023/05/07 08:21:20;;;;;;;5.60;1.00;;;;;;;16.97;29.51;100919.64;105828;1256;75454;-54
2023/05/07 08:23:47;;;;;;;2.00;0.90;;;;;;;17.08;29.72;100915.63;105944;1253;62796;-55
2023/05/07 08:26:14;;;;;;;3.20;0.90;;;;;;;17.21;29.28;100913.77;105487;1253;61686;-54
2023/05/07 08:28:42;;;;;;;3.60;0.80;;;;;;;17.27;29.08;100912.30;105963;1253;75764;-58
2023/05/07 08:31:09;;;;;;;5.30;1.70;;;;;;;17.29;28.92;100909.85;105503;1257;68849;-54
2023/05/07 08:33:38;;;;;;;3.50;0.80;;;;;;;17.40;28.43;100903.21;105728;1253;75196;-56
2023/05/07 08:36:05;;;;;;;3.70;0.80;;;;;;;17.49;28.40;100906.69;105740;1258;62779;-55
2023/05/07 08:38:33;;;;;;;3.80;1.00;;;;;;;17.43;27.55;100897.23;105630;1254;61506;-56
2023/05/07 08:41:01;;;;;;;4.40;0.80;;;;;;;17.17;28.11;100896.36;105877;1253;74975;-59
2023/05/07 08:43:29;;;;;;;1.60;0.70;;;;;;;17.18;29.16;100893.98;105619;1260;68366;-57
2023/05/07 08:45:56;;;;;;;2.90;1.00;;;;;;;17.28;29.22;100886.42;105619;1254;75464;-56
2023/05/07 08:48:26;;;;;;;2.00;0.80;;;;;;;17.40;28.87;100885.17;105711;1257;61785;-55
2023/05/07 08:50:59;;;;;;;5.30;1.00;;;;;;;17.50;27.91;100902.75;105427;1260;63614;-56
2023/05/07 12:38:35;;;;;;;2.10;1.10;;;;;;;17.12;27.43;100766.71;103389;1283;613348;-55
2023/05/07 12:41:03;;;;;;;6.40;1.20;;;;;;;17.12;27.41;100761.94;104627;1264;178540;-55
2023/05/07 12:43:30;;;;;;;2.00;1.00;;;;;;;17.05;28.45;100758.41;105788;1253;62805;-54
2023/05/07 12:45:59;;;;;;;2.00;0.90;;;;;;;17.09;27.29;100762.44;105896;1253;73364;-55
2023/05/07 12:48:27;;;;;;;5.60;0.90;;;;;;;17.02;27.23;100753.34;106123;1252;67609;-55
2023/05/07 12:50:54;;;;;;;2.40;1.10;;;;;;;16.90;27.77;100748.46;105933;1257;74662;-59
2023/05/07 12:53:24;;;;;;;3.30;1.10;;;;;;;16.85;28.03;100750.57;105517;1256;61743;-56
2023/05/07 12:55:55;;;;;;;3.50;1.00;;;;;;;16.77;27.94;100760.54;105641;1256;61756;-58
2023/05/07 12:58:30;;;;;;;2.30;0.90;;;;;;;16.76;28.65;100756.52;105583;1254;73708;-56
2023/05/07 13:01:00;;;;;;;2.20;0.80;;;;;;;16.75;29.03;100749.09;105636;1259;69221;-58
2023/05/07 13:03:28;;;;;;;1.70;0.90;;;;;;;16.75;28.71;100755.00;105646;1260;74896;-56
2023/05/07 13:06:06;;;;;;;4.50;1.10;;;;;;;16.82;28.33;100746.00;105510;1254;61778;-56
2023/05/07 13:08:36;;;;;;;1.70;0.80;;;;;;;16.88;28.65;100746.58;105990;1259;61548;-59
2023/05/07 13:11:03;;;;;;;5.50;0.90;;;;;;;16.85;28.01;100741.00;105581;1256;75905;-57
2023/05/07 13:13:31;;;;;;;5.70;1.00;;;;;;;16.82;28.09;100742.77;105680;1260;69434;-55
2023/05/07 13:16:00;;;;;;;2.60;0.90;;;;;;;16.82;28.14;100743.62;105670;1254;75247;-55
2023/05/07 13:18:32;;;;;;;6.30;1.30;;;;;;;16.74;28.23;100749.40;105830;1254;61480;-60
2023/05/07 13:21:00;;;;;;;3.50;1.30;;;;;;;16.60;28.22;100754.15;105421;1260;62277;-56
2023/05/07 13:23:27;;;;;;;2.80;1.10;;;;;;;16.43;27.72;100756.98;105676;1254;75559;-55
2023/05/07 13:25:55;;;;;;;2.70;1.00;;;;;;;16.22;28.64;100758.15;105959;1254;68207;-56
2023/05/07 13:28:23;;;;;;;4.40;0.90;;;;;;;16.15;29.04;100753.41;105868;1254;75275;-59
2023/05/07 13:30:51;;;;;;;2.50;1.00;;;;;;;16.17;29.04;100751.05;105646;1257;63051;-55
2023/05/07 13:33:18;;;;;;;4.10;0.90;;;;;;;16.15;28.84;100748.80;105726;1258;62598;-57
2023/05/07 13:35:46;;;;;;;5.70;1.00;;;;;;;16.17;29.49;100748.74;105482;1257;75429;-55
2023/05/07 13:38:13;;;;;;;4.90;1.20;;;;;;;16.23;29.33;100746.54;105768;1258;68466;-55
2023/05/07 13:40:40;;;;;;;3.80;1.00;;;;;;;16.22;29.14;100746.88;105915;1254;73806;-58
2023/05/07 13:43:07;;;;;;;2.80;1.20;;;;;;;16.18;29.05;100736.69;105844;1254;61360;-56
2023/05/07 13:45:34;;;;;;;4.40;1.50;;;;;;;16.13;29.61;100744.91;105800;1254;62883;-55
2023/05/07 13:48:02;;;;;;;3.20;1.10;;;;;;;16.10;30.11;100742.25;105541;1254;75213;-56
2023/05/07 13:50:29;;;;;;;2.80;0.90;;;;;;;16.10;30.05;100741.14;105872;1257;69380;-62
2023/05/07 13:52:56;;;;;;;3.20;0.80;;;;;;;16.14;30.20;100736.75;105882;1257;74901;-56
2023/05/07 13:55:24;;;;;;;2.50;1.20;;;;;;;16.14;29.87;100737.35;105587;1255;61785;-55
2023/05/07 13:57:59;;;;;;;2.40;0.90;;;;;;;16.13;29.11;100742.29;105705;1254;62678;-55
2023/05/07 14:00:26;;;;;;;2.90;0.90;;;;;;;16.01;29.34;100735.64;105531;1254;74400;-55
2023/05/07 14:02:55;;;;;;;3.70;1.20;;;;;;;15.93;30.01;100738.02;105750;1261;68864;-55
2023/05/07 14:05:25;;;;;;;2.00;0.80;;;;;;;15.86;29.73;100737.63;105868;1260;74225;-54
2023/05/07 14:07:52;;;;;;;4.60;1.20;;;;;;;15.77;30.29;100734.77;105828;1257;62548;-54
2023/05/07 14:10:20;;;;;;;3.10;1.00;;;;;;;15.72;30.39;100730.13;105684;1254;62352;-56
2023/05/07 14:12:47;;;;;;;2.70;1.20;;;;;;;15.71;30.08;100733.52;105851;1254;74747;-60
2023/05/07 14:15:15;;;;;;;2.40;1.00;;;;;;;15.66;30.64;100737.66;105573;1254;70299;-55
2023/05/07 14:17:43;;;;;;;2.10;0.80;;;;;;;15.61;30.48;100736.63;105755;1254;75308;-55
2023/05/07 14:20:12;;;;;;;3.60;1.30;;;;;;;15.54;30.89;100740.07;105505;1256;63164;-54
2023/05/07 14:22:39;;;;;;;1.80;0.90;;;;;;;15.48;30.81;100741.30;105600;1259;61821;-57
2023/05/07 14:25:09;;;;;;;1.90;0.90;;;;;;;15.41;31.25;100744.04;105669;1258;75487;-55
2023/05/07 14:27:36;;;;;;;3.50;0.90;;;;;;;15.36;31.39;100741.95;105619;1254;69629;-54
2023/05/07 14:30:04;;;;;;;3.80;0.90;;;;;;;15.31;31.26;100740.69;105743;1254;75193;-56
2023/05/07 14:32:32;;;;;;;3.70;1.00;;;;;;;15.25;31.08;100736.69;105775;1254;62886;-55
2023/05/07 14:35:00;;;;;;;5.00;0.90;;;;;;;15.19;30.99;100743.27;105990;1254;61361;-58
2023/05/07 14:37:27;;;;;;;2.10;0.70;;;;;;;15.11;31.32;100741.05;105639;1258;75222;-54
2023/05/07 14:39:54;;;;;;;3.80;1.10;;;;;;;15.03;31.29;100740.70;105586;1254;69342;-54
2023/05/07 14:42:21;;;;;;;4.10;1.10;;;;;;;14.96;31.74;100741.38;105556;1254;75205;-55
2023/05/07 14:44:48;;;;;;;1.10;0.60;;;;;;;14.90;31.86;100746.02;105740;1258;61589;-56
2023/05/07 14:47:16;;;;;;;2.70;1.00;;;;;;;14.84;31.85;100745.65;105941;1254;62746;-61
2023/05/07 14:49:45;;;;;;;1.80;1.00;;;;;;;14.81;31.80;100744.87;105530;1254;75537;-57
2023/05/07 14:52:12;;;;;;;3.00;0.70;;;;;;;14.80;31.81;100745.63;105924;1254;69267;-57
2023/05/07 14:54:39;;;;;;;5.30;1.10;;;;;;;14.75;31.48;100745.27;105633;1259;75203;-55
2023/05/07 14:57:09;;;;;;;3.70;1.00;;;;;;;14.65;31.85;100747.14;105954;1255;61831;-59
2023/05/07 14:59:37;;;;;;;3.10;0.90;;;;;;;14.56;31.92;100752.59;105523;1260;61779;-55
2023/05/07 15:02:07;;;;;;;2.90;0.80;;;;;;;14.46;32.47;100750.71;105721;1256;75394;-55
2023/05/07 15:04:35;;;;;;;3.70;0.70;;;;;;;14.37;32.43;100751.92;105733;1254;69542;-56
2023/05/07 15:07:03;;;;;;;3.30;0.90;;;;;;;14.27;32.46;100759.91;105852;1257;74032;-55
2023/05/07 15:09:30;;;;;;;2.00;0.80;;;;;;;14.18;32.76;100756.59;105442;1254;62797;-56
2023/05/07 15:11:57;;;;;;;4.30;0.80;;;;;;;14.09;32.95;100760.55;105309;1260;62351;-56
2023/05/07 15:14:25;;;;;;;3.10;1.30;;;;;;;14.00;32.76;100758.85;105630;1254;74471;-57
2023/05/07 15:16:52;;;;;;;2.90;0.90;;;;;;;13.93;32.89;100755.50;105896;1259;68343;-58
2023/05/07 15:19:21;;;;;;;2.60;0.90;;;;;;;13.90;32.82;100761.88;105842;1254;74234;-58
2023/05/07 15:21:48;;;;;;;5.10;1.40;;;;;;;13.89;33.15;100765.63;105579;1254;62889;-54
2023/05/07 15:24:16;;;;;;;2.10;1.00;;;;;;;13.88;33.33;100762.45;105748;1254;62891;-55
2023/05/07 15:26:43;;;;;;;2.70;1.20;;;;;;;13.86;33.80;100771.25;105449;1257;75282;-56
2023/05/07 15:29:10;;;;;;;5.50;1.30;;;;;;;13.84;33.46;100769.77;105668;1260;68397;-55
2023/05/07 15:31:38;;;;;;;4.90;1.20;;;;;;;13.82;33.99;100770.95;105887;1257;74096;-59
2023/05/07 15:34:06;;;;;;;3.60;1.40;;;;;;;13.83;33.73;100771.45;105693;1260;62035;-55
2023/05/07 15:36:33;;;;;;;3.70;1.50;;;;;;;13.83;33.77;100772.17;105488;1254;62886;-54
2023/05/07 15:39:02;;;;;;;2.30;0.90;;;;;;;13.81;33.65;100774.08;106002;1254;75332;-59
2023/05/07 15:41:29;;;;;;;2.10;0.80;;;;;;;13.79;33.96;100772.34;105569;1254;69910;-54
2023/05/07 15:43:56;;;;;;;4.50;1.10;;;;;;;13.76;33.79;100776.36;105610;1260;74685;-60
2023/05/07 15:46:24;;;;;;;5.20;1.00;;;;;;;13.72;33.68;100777.16;105556;1254;62596;-55
2023/05/07 15:48:52;;;;;;;5.10;2.50;;;;;;;13.68;33.89;100775.27;105718;1258;63106;-53
2023/05/07 15:51:19;;;;;;;5.70;0.90;;;;;;;13.65;33.78;100780.30;105655;1259;75279;-55
2023/05/07 15:53:47;;;;;;;1.90;0.90;;;;;;;13.62;34.03;100782.33;105823;1257;68088;-54
2023/05/07 15:56:14;;;;;;;1.80;0.70;;;;;;;13.57;34.72;100789.21;105344;1254;73920;-57
2023/05/07 15:58:41;;;;;;;3.20;1.00;;;;;;;13.51;34.31;100790.91;105883;1255;62422;-55
2023/05/07 16:01:08;;;;;;;2.40;0.70;;;;;;;13.45;34.46;100791.86;105610;1254;63018;-54